sensor_id;sensor_type;location;lat;lon;timestamp;temperature;humidity
11772;DHT22;12556;55.748;13.194;2023-06-10T00:01:37;11.60;90.00
11772;DHT22;12556;55.748;13.194;2023-06-10T00:04:05;11.70;90.00
11772;DHT22;12556;55.748;13.194;2023-06-10T00:06:31;11.60;89.90
11772;DHT22;12556;55.748;13.194;2023-06-10T00:09:03;11.60;89.90
11772;DHT22;12556;55.748;13.194;2023-06-10T00:11:31;11.70;90.00
11772;DHT22;12556;55.748;13.194;2023-06-10T00:13:58;11.60;89.80
11772;DHT22;12556;55.748;13.194;2023-06-10T00:16:25;11.60;89.70
11772;DHT22;12556;55.748;13.194;2023-06-10T00:18:52;11.60;89.70
11772;DHT22;12556;55.748;13.194;2023-06-10T00:21:21;11.60;89.60
11772;DHT22;12556;55.748;13.194;2023-06-10T00:23:50;11.60;89.60
11772;DHT22;12556;55.748;13.194;2023-06-10T00:26:18;11.60;89.60
11772;DHT22;12556;55.748;13.194;2023-06-10T00:28:45;11.60;89.60
11772;DHT22;12556;55.748;13.194;2023-06-10T00:31:12;11.50;89.50
11772;DHT22;12556;55.748;13.194;2023-06-10T00:33:39;11.70;89.70
11772;DHT22;12556;55.748;13.194;2023-06-10T00:36:06;11.50;89.50
11772;DHT22;12556;55.748;13.194;2023-06-10T00:38:33;11.50;89.60
11772;DHT22;12556;55.748;13.194;2023-06-10T00:41:00;11.50;89.60
11772;DHT22;12556;55.748;13.194;2023-06-10T00:43:28;11.50;90.10
11772;DHT22;12556;55.748;13.194;2023-06-10T00:45:55;11.50;89.70
11772;DHT22;12556;55.748;13.194;2023-06-10T00:48:22;11.50;89.80
11772;DHT22;12556;55.748;13.194;2023-06-10T00:50:50;11.40;89.80
11772;DHT22;12556;55.748;13.194;2023-06-10T00:53:17;11.50;90.00
11772;DHT22;12556;55.748;13.194;2023-06-10T00:55:44;11.40;90.00
11772;DHT22;12556;55.748;13.194;2023-06-10T00:58:12;11.40;90.00
11772;DHT22;12556;55.748;13.194;2023-06-10T01:00:40;11.40;90.10
11772;DHT22;12556;55.748;13.194;2023-06-10T01:03:08;11.30;90.10
11772;DHT22;12556;55.748;13.194;2023-06-10T01:05:35;11.30;90.20
11772;DHT22;12556;55.748;13.194;2023-06-10T01:08:07;11.30;90.30
11772;DHT22;12556;55.748;13.194;2023-06-10T01:10:38;11.70;90.60
11772;DHT22;12556;55.748;13.194;2023-06-10T01:13:08;11.20;90.50
11772;DHT22;12556;55.748;13.194;2023-06-10T01:15:38;11.20;90.60
11772;DHT22;12556;55.748;13.194;2023-06-10T01:18:07;11.20;90.70
11772;DHT22;12556;55.748;13.194;2023-06-10T01:20:36;11.20;90.80
11772;DHT22;12556;55.748;13.194;2023-06-10T01:23:07;11.20;90.90
11772;DHT22;12556;55.748;13.194;2023-06-10T01:25:37;11.10;91.00
11772;DHT22;12556;55.748;13.194;2023-06-10T01:28:10;11.20;91.20
11772;DHT22;12556;55.748;13.194;2023-06-10T01:30:41;11.20;91.30
11772;DHT22;12556;55.748;13.194;2023-06-10T01:33:13;11.20;91.30
11772;DHT22;12556;55.748;13.194;2023-06-10T01:35:41;11.20;91.40
11772;DHT22;12556;55.748;13.194;2023-06-10T01:38:12;11.20;91.50
11772;DHT22;12556;55.748;13.194;2023-06-10T01:40:41;11.10;91.60
11772;DHT22;12556;55.748;13.194;2023-06-10T01:43:08;11.10;91.90
11772;DHT22;12556;55.748;13.194;2023-06-10T01:45:35;11.10;91.70
11772;DHT22;12556;55.748;13.194;2023-06-10T01:48:02;11.10;91.80
11772;DHT22;12556;55.748;13.194;2023-06-10T01:50:29;11.10;91.80
11772;DHT22;12556;55.748;13.194;2023-06-10T01:52:57;11.10;91.80
11772;DHT22;12556;55.748;13.194;2023-06-10T01:55:26;11.10;91.90
11772;DHT22;12556;55.748;13.194;2023-06-10T01:57:52;11.10;92.00
11772;DHT22;12556;55.748;13.194;2023-06-10T02:00:20;11.10;92.10
11772;DHT22;12556;55.748;13.194;2023-06-10T02:02:46;11.10;92.20
11772;DHT22;12556;55.748;13.194;2023-06-10T02:05:13;11.10;92.20
11772;DHT22;12556;55.748;13.194;2023-06-10T02:07:40;11.10;92.30
11772;DHT22;12556;55.748;13.194;2023-06-10T02:10:08;11.00;92.40
11772;DHT22;12556;55.748;13.194;2023-06-10T02:12:36;11.00;92.50
11772;DHT22;12556;55.748;13.194;2023-06-10T02:15:03;11.00;92.60
11772;DHT22;12556;55.748;13.194;2023-06-10T02:17:30;11.00;92.70
11772;DHT22;12556;55.748;13.194;2023-06-10T02:19:58;11.00;92.80
11772;DHT22;12556;55.748;13.194;2023-06-10T02:22:25;11.00;93.00
11772;DHT22;12556;55.748;13.194;2023-06-10T02:24:52;10.90;93.00
11772;DHT22;12556;55.748;13.194;2023-06-10T02:27:19;10.90;93.10
11772;DHT22;12556;55.748;13.194;2023-06-10T02:29:47;11.00;93.30
11772;DHT22;12556;55.748;13.194;2023-06-10T02:32:14;10.90;93.40
11772;DHT22;12556;55.748;13.194;2023-06-10T02:34:41;10.90;93.60
11772;DHT22;12556;55.748;13.194;2023-06-10T02:37:09;10.90;93.70
11772;DHT22;12556;55.748;13.194;2023-06-10T02:39:36;10.80;93.70
11772;DHT22;12556;55.748;13.194;2023-06-10T02:42:03;10.80;93.90
11772;DHT22;12556;55.748;13.194;2023-06-10T02:44:31;10.80;94.00
11772;DHT22;12556;55.748;13.194;2023-06-10T02:46:59;10.80;94.20
11772;DHT22;12556;55.748;13.194;2023-06-10T02:49:26;10.80;94.30
11772;DHT22;12556;55.748;13.194;2023-06-10T02:51:53;11.00;94.60
11772;DHT22;12556;55.748;13.194;2023-06-10T02:54:20;10.80;94.60
11772;DHT22;12556;55.748;13.194;2023-06-10T02:56:48;10.80;94.70
11772;DHT22;12556;55.748;13.194;2023-06-10T02:59:15;10.90;94.90
11772;DHT22;12556;55.748;13.194;2023-06-10T03:01:42;10.80;95.00
11772;DHT22;12556;55.748;13.194;2023-06-10T03:04:10;10.80;95.10
11772;DHT22;12556;55.748;13.194;2023-06-10T03:06:39;10.80;95.20
11772;DHT22;12556;55.748;13.194;2023-06-10T03:09:07;10.80;95.40
11772;DHT22;12556;55.748;13.194;2023-06-10T03:11:34;10.90;95.60
11772;DHT22;12556;55.748;13.194;2023-06-10T03:14:01;10.80;95.70
11772;DHT22;12556;55.748;13.194;2023-06-10T03:16:28;10.80;95.80
11772;DHT22;12556;55.748;13.194;2023-06-10T03:18:56;10.80;96.00
11772;DHT22;12556;55.748;13.194;2023-06-10T03:21:25;10.90;96.10
11772;DHT22;12556;55.748;13.194;2023-06-10T03:23:52;10.80;96.20
11772;DHT22;12556;55.748;13.194;2023-06-10T03:26:19;10.90;96.40
11772;DHT22;12556;55.748;13.194;2023-06-10T03:28:47;10.90;96.60
11772;DHT22;12556;55.748;13.194;2023-06-10T03:31:14;10.90;96.70
11772;DHT22;12556;55.748;13.194;2023-06-10T03:33:42;10.90;96.80
11772;DHT22;12556;55.748;13.194;2023-06-10T03:36:09;11.00;97.00
11772;DHT22;12556;55.748;13.194;2023-06-10T03:38:37;11.20;97.20
11772;DHT22;12556;55.748;13.194;2023-06-10T03:41:04;11.10;97.20
11772;DHT22;12556;55.748;13.194;2023-06-10T03:43:31;11.00;97.30
11772;DHT22;12556;55.748;13.194;2023-06-10T03:45:58;11.10;97.70
11772;DHT22;12556;55.748;13.194;2023-06-10T03:48:25;11.90;97.90
11772;DHT22;12556;55.748;13.194;2023-06-10T03:50:52;11.10;97.60
11772;DHT22;12556;55.748;13.194;2023-06-10T03:53:19;11.20;97.70
11772;DHT22;12556;55.748;13.194;2023-06-10T03:55:47;11.30;97.90
11772;DHT22;12556;55.748;13.194;2023-06-10T03:58:14;11.30;97.90
11772;DHT22;12556;55.748;13.194;2023-06-10T04:00:41;11.70;98.20
11772;DHT22;12556;55.748;13.194;2023-06-10T04:03:08;11.40;98.20
11772;DHT22;12556;55.748;13.194;2023-06-10T04:05:40;11.40;98.20
11772;DHT22;12556;55.748;13.194;2023-06-10T04:08:07;11.50;98.30
11772;DHT22;12556;55.748;13.194;2023-06-10T04:10:34;11.50;98.30
11772;DHT22;12556;55.748;13.194;2023-06-10T04:13:03;11.60;98.40
11772;DHT22;12556;55.748;13.194;2023-06-10T04:15:30;11.70;98.40
11772;DHT22;12556;55.748;13.194;2023-06-10T04:17:59;11.80;98.60
11772;DHT22;12556;55.748;13.194;2023-06-10T04:20:26;11.90;98.60
11772;DHT22;12556;55.748;13.194;2023-06-10T04:22:53;12.00;98.60
11772;DHT22;12556;55.748;13.194;2023-06-10T04:25:20;12.00;98.60
11772;DHT22;12556;55.748;13.194;2023-06-10T04:27:47;12.40;98.80
11772;DHT22;12556;55.748;13.194;2023-06-10T04:30:16;12.20;98.70
11772;DHT22;12556;55.748;13.194;2023-06-10T04:32:43;12.70;98.90
11772;DHT22;12556;55.748;13.194;2023-06-10T04:35:11;12.40;98.70
11772;DHT22;12556;55.748;13.194;2023-06-10T04:37:39;12.60;98.70
11772;DHT22;12556;55.748;13.194;2023-06-10T04:40:07;12.60;98.60
11772;DHT22;12556;55.748;13.194;2023-06-10T04:42:35;12.80;98.60
11772;DHT22;12556;55.748;13.194;2023-06-10T04:45:02;12.90;98.60
11772;DHT22;12556;55.748;13.194;2023-06-10T04:47:30;13.50;98.70
11772;DHT22;12556;55.748;13.194;2023-06-10T04:49:58;13.10;98.40
11772;DHT22;12556;55.748;13.194;2023-06-10T04:52:25;13.20;98.30
11772;DHT22;12556;55.748;13.194;2023-06-10T04:54:52;13.40;98.30
11772;DHT22;12556;55.748;13.194;2023-06-10T04:57:19;13.50;98.30
11772;DHT22;12556;55.748;13.194;2023-06-10T04:59:47;13.70;98.20
11772;DHT22;12556;55.748;13.194;2023-06-10T05:02:13;13.70;98.00
11772;DHT22;12556;55.748;13.194;2023-06-10T05:04:42;13.70;97.90
11772;DHT22;12556;55.748;13.194;2023-06-10T05:07:09;13.80;97.80
11772;DHT22;12556;55.748;13.194;2023-06-10T05:09:36;13.90;97.80
11772;DHT22;12556;55.748;13.194;2023-06-10T05:12:03;14.00;97.70
11772;DHT22;12556;55.748;13.194;2023-06-10T05:14:30;14.20;97.60
11772;DHT22;12556;55.748;13.194;2023-06-10T05:16:58;14.30;97.50
11772;DHT22;12556;55.748;13.194;2023-06-10T05:19:25;14.40;97.30
11772;DHT22;12556;55.748;13.194;2023-06-10T05:21:54;14.50;97.20
11772;DHT22;12556;55.748;13.194;2023-06-10T05:24:21;15.10;97.20
11772;DHT22;12556;55.748;13.194;2023-06-10T05:26:48;14.80;96.90
11772;DHT22;12556;55.748;13.194;2023-06-10T05:29:15;14.90;96.80
11772;DHT22;12556;55.748;13.194;2023-06-10T05:31:42;15.10;96.70
11772;DHT22;12556;55.748;13.194;2023-06-10T05:34:09;15.20;96.40
11772;DHT22;12556;55.748;13.194;2023-06-10T05:36:36;15.70;96.50
11772;DHT22;12556;55.748;13.194;2023-06-10T05:39:04;15.50;96.10
11772;DHT22;12556;55.748;13.194;2023-06-10T05:41:31;15.60;95.90
11772;DHT22;12556;55.748;13.194;2023-06-10T05:43:58;15.80;95.60
11772;DHT22;12556;55.748;13.194;2023-06-10T05:46:25;15.80;95.40
11772;DHT22;12556;55.748;13.194;2023-06-10T05:48:52;15.90;95.30
11772;DHT22;12556;55.748;13.194;2023-06-10T05:51:19;16.00;95.20
11772;DHT22;12556;55.748;13.194;2023-06-10T05:53:46;16.20;95.10
11772;DHT22;12556;55.748;13.194;2023-06-10T05:56:14;16.70;94.70
11772;DHT22;12556;55.748;13.194;2023-06-10T05:58:41;16.30;94.30
11772;DHT22;12556;55.748;13.194;2023-06-10T06:01:08;16.50;94.00
11772;DHT22;12556;55.748;13.194;2023-06-10T06:03:35;16.50;93.70
11772;DHT22;12556;55.748;13.194;2023-06-10T06:06:02;16.60;93.30
11772;DHT22;12556;55.748;13.194;2023-06-10T06:08:30;16.70;93.10
11772;DHT22;12556;55.748;13.194;2023-06-10T06:10:57;16.80;92.90
11772;DHT22;12556;55.748;13.194;2023-06-10T06:13:25;16.90;92.70
11772;DHT22;12556;55.748;13.194;2023-06-10T06:15:52;17.00;92.60
11772;DHT22;12556;55.748;13.194;2023-06-10T06:18:19;17.00;92.40
11772;DHT22;12556;55.748;13.194;2023-06-10T06:20:46;17.10;92.30
11772;DHT22;12556;55.748;13.194;2023-06-10T06:23:13;17.20;91.90
11772;DHT22;12556;55.748;13.194;2023-06-10T06:25:40;17.20;91.70
11772;DHT22;12556;55.748;13.194;2023-06-10T06:28:09;17.30;91.60
11772;DHT22;12556;55.748;13.194;2023-06-10T06:30:37;17.30;91.40
11772;DHT22;12556;55.748;13.194;2023-06-10T06:33:04;17.50;91.50
11772;DHT22;12556;55.748;13.194;2023-06-10T06:35:32;17.70;91.40
11772;DHT22;12556;55.748;13.194;2023-06-10T06:37:59;17.80;91.10
11772;DHT22;12556;55.748;13.194;2023-06-10T06:40:26;17.90;90.80
11772;DHT22;12556;55.748;13.194;2023-06-10T06:42:53;18.00;90.70
11772;DHT22;12556;55.748;13.194;2023-06-10T06:45:20;18.00;90.60
11772;DHT22;12556;55.748;13.194;2023-06-10T06:47:48;18.00;90.20
11772;DHT22;12556;55.748;13.194;2023-06-10T06:50:15;18.00;90.20
11772;DHT22;12556;55.748;13.194;2023-06-10T06:52:42;18.20;90.20
11772;DHT22;12556;55.748;13.194;2023-06-10T06:55:09;18.40;90.10
11772;DHT22;12556;55.748;13.194;2023-06-10T06:57:36;18.50;89.80
11772;DHT22;12556;55.748;13.194;2023-06-10T07:00:04;18.60;90.10
11772;DHT22;12556;55.748;13.194;2023-06-10T07:02:31;18.80;89.30
11772;DHT22;12556;55.748;13.194;2023-06-10T07:05:00;18.90;88.70
11772;DHT22;12556;55.748;13.194;2023-06-10T07:07:27;19.10;88.30
11772;DHT22;12556;55.748;13.194;2023-06-10T07:09:54;19.40;88.30
11772;DHT22;12556;55.748;13.194;2023-06-10T07:12:21;19.50;86.70
11772;DHT22;12556;55.748;13.194;2023-06-10T07:14:49;19.60;85.60
11772;DHT22;12556;55.748;13.194;2023-06-10T07:17:16;19.60;83.90
11772;DHT22;12556;55.748;13.194;2023-06-10T07:19:43;19.70;83.10
11772;DHT22;12556;55.748;13.194;2023-06-10T07:22:11;19.80;82.10
11772;DHT22;12556;55.748;13.194;2023-06-10T07:24:38;19.90;81.40
11772;DHT22;12556;55.748;13.194;2023-06-10T07:27:06;20.00;80.30
11772;DHT22;12556;55.748;13.194;2023-06-10T07:29:33;20.10;79.70
11772;DHT22;12556;55.748;13.194;2023-06-10T07:32:01;20.10;79.60
11772;DHT22;12556;55.748;13.194;2023-06-10T07:34:28;20.10;78.70
11772;DHT22;12556;55.748;13.194;2023-06-10T07:36:55;20.20;77.80
11772;DHT22;12556;55.748;13.194;2023-06-10T07:39:23;20.20;77.40
11772;DHT22;12556;55.748;13.194;2023-06-10T07:41:50;20.10;77.30
11772;DHT22;12556;55.748;13.194;2023-06-10T07:44:19;20.20;77.40
11772;DHT22;12556;55.748;13.194;2023-06-10T07:46:46;20.30;77.00
11772;DHT22;12556;55.748;13.194;2023-06-10T07:49:13;20.40;76.60
11772;DHT22;12556;55.748;13.194;2023-06-10T07:51:40;20.60;76.10
11772;DHT22;12556;55.748;13.194;2023-06-10T07:54:06;20.80;75.50
11772;DHT22;12556;55.748;13.194;2023-06-10T07:56:35;21.00;75.10
11772;DHT22;12556;55.748;13.194;2023-06-10T07:59:02;21.20;73.80
11772;DHT22;12556;55.748;13.194;2023-06-10T08:01:29;21.40;73.70
11772;DHT22;12556;55.748;13.194;2023-06-10T08:03:56;21.50;73.00
11772;DHT22;12556;55.748;13.194;2023-06-10T08:06:23;21.70;72.20
11772;DHT22;12556;55.748;13.194;2023-06-10T08:08:50;21.80;72.10
11772;DHT22;12556;55.748;13.194;2023-06-10T08:11:17;21.90;71.80
11772;DHT22;12556;55.748;13.194;2023-06-10T08:13:45;22.00;71.60
11772;DHT22;12556;55.748;13.194;2023-06-10T08:16:12;22.10;71.30
11772;DHT22;12556;55.748;13.194;2023-06-10T08:18:40;22.10;71.40
11772;DHT22;12556;55.748;13.194;2023-06-10T08:21:07;22.10;71.00
11772;DHT22;12556;55.748;13.194;2023-06-10T08:23:33;22.10;70.80
11772;DHT22;12556;55.748;13.194;2023-06-10T08:26:00;22.20;70.80
11772;DHT22;12556;55.748;13.194;2023-06-10T08:28:27;22.40;70.40
11772;DHT22;12556;55.748;13.194;2023-06-10T08:30:56;22.50;69.80
11772;DHT22;12556;55.748;13.194;2023-06-10T08:33:23;22.50;69.30
11772;DHT22;12556;55.748;13.194;2023-06-10T08:35:49;22.40;69.20
11772;DHT22;12556;55.748;13.194;2023-06-10T08:38:16;22.40;69.10
11772;DHT22;12556;55.748;13.194;2023-06-10T08:40:43;22.70;69.20
11772;DHT22;12556;55.748;13.194;2023-06-10T08:43:17;22.80;68.20
11772;DHT22;12556;55.748;13.194;2023-06-10T08:45:48;22.80;67.80
11772;DHT22;12556;55.748;13.194;2023-06-10T08:48:18;22.90;67.50
11772;DHT22;12556;55.748;13.194;2023-06-10T08:50:46;22.80;66.10
11772;DHT22;12556;55.748;13.194;2023-06-10T08:53:18;22.80;66.40
11772;DHT22;12556;55.748;13.194;2023-06-10T08:55:49;23.00;66.50
11772;DHT22;12556;55.748;13.194;2023-06-10T08:58:18;23.10;65.70
11772;DHT22;12556;55.748;13.194;2023-06-10T09:00:45;23.00;65.50
11772;DHT22;12556;55.748;13.194;2023-06-10T09:03:12;23.00;65.10
11772;DHT22;12556;55.748;13.194;2023-06-10T09:05:42;23.00;65.10
11772;DHT22;12556;55.748;13.194;2023-06-10T09:08:09;23.10;65.30
11772;DHT22;12556;55.748;13.194;2023-06-10T09:10:36;23.20;65.10
11772;DHT22;12556;55.748;13.194;2023-06-10T09:13:04;23.20;65.20
11772;DHT22;12556;55.748;13.194;2023-06-10T09:15:30;23.20;64.80
11772;DHT22;12556;55.748;13.194;2023-06-10T09:17:58;23.30;65.50
11772;DHT22;12556;55.748;13.194;2023-06-10T09:20:25;23.50;64.50
11772;DHT22;12556;55.748;13.194;2023-06-10T09:22:53;23.40;63.90
11772;DHT22;12556;55.748;13.194;2023-06-10T09:25:34;23.40;63.30
11772;DHT22;12556;55.748;13.194;2023-06-10T09:28:01;23.50;63.50
11772;DHT22;12556;55.748;13.194;2023-06-10T09:30:29;23.60;63.80
11772;DHT22;12556;55.748;13.194;2023-06-10T09:32:57;23.70;63.70
11772;DHT22;12556;55.748;13.194;2023-06-10T09:35:25;23.60;63.10
11772;DHT22;12556;55.748;13.194;2023-06-10T09:37:54;23.50;63.60
11772;DHT22;12556;55.748;13.194;2023-06-10T09:40:21;23.60;63.50
11772;DHT22;12556;55.748;13.194;2023-06-10T09:42:53;23.60;62.90
11772;DHT22;12556;55.748;13.194;2023-06-10T09:45:21;23.70;62.80
11772;DHT22;12556;55.748;13.194;2023-06-10T09:47:51;23.80;62.70
11772;DHT22;12556;55.748;13.194;2023-06-10T09:50:18;23.90;62.90
11772;DHT22;12556;55.748;13.194;2023-06-10T09:52:46;24.00;62.90
11772;DHT22;12556;55.748;13.194;2023-06-10T09:55:14;24.00;62.40
11772;DHT22;12556;55.748;13.194;2023-06-10T09:57:41;23.90;62.40
11772;DHT22;12556;55.748;13.194;2023-06-10T10:00:12;24.10;63.60
11772;DHT22;12556;55.748;13.194;2023-06-10T10:02:46;24.30;62.90
11772;DHT22;12556;55.748;13.194;2023-06-10T10:05:14;24.40;63.00
11772;DHT22;12556;55.748;13.194;2023-06-10T10:07:41;24.50;62.20
11772;DHT22;12556;55.748;13.194;2023-06-10T10:10:09;24.40;62.20
11772;DHT22;12556;55.748;13.194;2023-06-10T10:12:38;24.40;62.80
11772;DHT22;12556;55.748;13.194;2023-06-10T10:15:06;24.40;62.60
11772;DHT22;12556;55.748;13.194;2023-06-10T10:17:34;24.60;62.50
11772;DHT22;12556;55.748;13.194;2023-06-10T10:20:03;24.30;62.40
11772;DHT22;12556;55.748;13.194;2023-06-10T10:22:37;24.50;62.20
11772;DHT22;12556;55.748;13.194;2023-06-10T10:25:08;24.60;61.50
11772;DHT22;12556;55.748;13.194;2023-06-10T10:27:42;24.70;61.00
11772;DHT22;12556;55.748;13.194;2023-06-10T10:30:11;24.80;60.50
11772;DHT22;12556;55.748;13.194;2023-06-10T10:32:42;24.70;59.80
11772;DHT22;12556;55.748;13.194;2023-06-10T10:35:15;24.70;60.00
11772;DHT22;12556;55.748;13.194;2023-06-10T10:37:43;24.80;59.80
11772;DHT22;12556;55.748;13.194;2023-06-10T10:40:11;24.90;59.80
11772;DHT22;12556;55.748;13.194;2023-06-10T10:42:39;24.90;59.40
11772;DHT22;12556;55.748;13.194;2023-06-10T10:45:09;25.10;59.30
11772;DHT22;12556;55.748;13.194;2023-06-10T10:47:38;25.30;59.00
11772;DHT22;12556;55.748;13.194;2023-06-10T10:50:13;25.50;58.70
11772;DHT22;12556;55.748;13.194;2023-06-10T10:52:51;25.70;58.40
11772;DHT22;12556;55.748;13.194;2023-06-10T10:55:18;26.00;58.30
11772;DHT22;12556;55.748;13.194;2023-06-10T10:57:54;26.10;57.90
11772;DHT22;12556;55.748;13.194;2023-06-10T11:00:27;26.10;57.60
11772;DHT22;12556;55.748;13.194;2023-06-10T11:02:58;26.10;56.70
11772;DHT22;12556;55.748;13.194;2023-06-10T11:05:37;26.10;56.70
11772;DHT22;12556;55.748;13.194;2023-06-10T11:08:05;26.20;56.20
11772;DHT22;12556;55.748;13.194;2023-06-10T11:10:34;26.10;55.80
11772;DHT22;12556;55.748;13.194;2023-06-10T11:13:06;26.00;56.00
11772;DHT22;12556;55.748;13.194;2023-06-10T11:15:38;26.00;56.60
11772;DHT22;12556;55.748;13.194;2023-06-10T11:18:14;26.10;56.40
11772;DHT22;12556;55.748;13.194;2023-06-10T11:20:59;26.00;56.30
11772;DHT22;12556;55.748;13.194;2023-06-10T11:23:41;26.10;56.30
11772;DHT22;12556;55.748;13.194;2023-06-10T11:26:30;26.10;56.60
11772;DHT22;12556;55.748;13.194;2023-06-10T11:29:08;26.20;56.80
11772;DHT22;12556;55.748;13.194;2023-06-10T11:31:42;26.10;56.60
11772;DHT22;12556;55.748;13.194;2023-06-10T11:34:09;26.10;56.50
11772;DHT22;12556;55.748;13.194;2023-06-10T11:36:38;26.00;57.00
11772;DHT22;12556;55.748;13.194;2023-06-10T11:39:08;26.20;57.30
11772;DHT22;12556;55.748;13.194;2023-06-10T11:41:37;26.40;57.30
11772;DHT22;12556;55.748;13.194;2023-06-10T11:44:08;26.50;56.80
11772;DHT22;12556;55.748;13.194;2023-06-10T11:46:35;26.60;56.10
11772;DHT22;12556;55.748;13.194;2023-06-10T11:49:04;26.40;56.00
11772;DHT22;12556;55.748;13.194;2023-06-10T11:51:34;26.40;56.20
11772;DHT22;12556;55.748;13.194;2023-06-10T11:54:01;26.20;56.10
11772;DHT22;12556;55.748;13.194;2023-06-10T11:56:29;26.10;55.50
11772;DHT22;12556;55.748;13.194;2023-06-10T11:58:58;26.00;55.40
11772;DHT22;12556;55.748;13.194;2023-06-10T12:01:30;26.10;55.40
11772;DHT22;12556;55.748;13.194;2023-06-10T12:04:01;26.10;55.20
11772;DHT22;12556;55.748;13.194;2023-06-10T12:06:39;26.00;55.60
11772;DHT22;12556;55.748;13.194;2023-06-10T12:09:07;26.00;56.40
11772;DHT22;12556;55.748;13.194;2023-06-10T12:11:39;26.10;56.40
11772;DHT22;12556;55.748;13.194;2023-06-10T12:14:06;26.10;55.60
11772;DHT22;12556;55.748;13.194;2023-06-10T12:16:33;26.10;55.80
11772;DHT22;12556;55.748;13.194;2023-06-10T12:19:04;26.00;55.90
11772;DHT22;12556;55.748;13.194;2023-06-10T12:21:32;25.90;55.80
11772;DHT22;12556;55.748;13.194;2023-06-10T12:24:06;25.80;55.70
11772;DHT22;12556;55.748;13.194;2023-06-10T12:26:37;25.80;56.30
11772;DHT22;12556;55.748;13.194;2023-06-10T12:29:19;25.90;55.80
11772;DHT22;12556;55.748;13.194;2023-06-10T12:32:00;26.00;55.50
11772;DHT22;12556;55.748;13.194;2023-06-10T12:34:32;26.00;54.90
11772;DHT22;12556;55.748;13.194;2023-06-10T12:37:00;25.90;54.40
11772;DHT22;12556;55.748;13.194;2023-06-10T12:39:28;25.80;54.40
11772;DHT22;12556;55.748;13.194;2023-06-10T12:41:55;25.70;54.20
11772;DHT22;12556;55.748;13.194;2023-06-10T12:44:32;25.60;54.30
11772;DHT22;12556;55.748;13.194;2023-06-10T12:46:59;25.60;53.80
11772;DHT22;12556;55.748;13.194;2023-06-10T12:49:27;25.60;53.80
11772;DHT22;12556;55.748;13.194;2023-06-10T12:51:54;25.70;53.90
11772;DHT22;12556;55.748;13.194;2023-06-10T12:54:21;25.80;53.50
11772;DHT22;12556;55.748;13.194;2023-06-10T12:56:50;25.80;53.50
11772;DHT22;12556;55.748;13.194;2023-06-10T12:59:17;25.90;53.30
11772;DHT22;12556;55.748;13.194;2023-06-10T13:01:43;25.90;53.30
11772;DHT22;12556;55.748;13.194;2023-06-10T13:04:10;25.80;52.80
11772;DHT22;12556;55.748;13.194;2023-06-10T13:06:38;25.80;52.70
11772;DHT22;12556;55.748;13.194;2023-06-10T13:09:05;25.70;52.30
11772;DHT22;12556;55.748;13.194;2023-06-10T13:11:34;25.60;51.50
11772;DHT22;12556;55.748;13.194;2023-06-10T13:14:03;25.50;51.20
11772;DHT22;12556;55.748;13.194;2023-06-10T13:16:32;25.40;51.60
11772;DHT22;12556;55.748;13.194;2023-06-10T13:18:59;25.20;51.70
11772;DHT22;12556;55.748;13.194;2023-06-10T13:21:28;25.30;52.30
11772;DHT22;12556;55.748;13.194;2023-06-10T13:23:55;25.30;52.60
11772;DHT22;12556;55.748;13.194;2023-06-10T13:26:22;25.40;51.70
11772;DHT22;12556;55.748;13.194;2023-06-10T13:28:49;25.50;50.60
11772;DHT22;12556;55.748;13.194;2023-06-10T13:31:17;25.50;50.20
11772;DHT22;12556;55.748;13.194;2023-06-10T13:33:46;25.50;49.80
11772;DHT22;12556;55.748;13.194;2023-06-10T13:36:13;25.40;50.00
11772;DHT22;12556;55.748;13.194;2023-06-10T13:38:40;25.40;50.50
11772;DHT22;12556;55.748;13.194;2023-06-10T13:41:07;25.30;50.80
11772;DHT22;12556;55.748;13.194;2023-06-10T13:43:34;25.20;50.80
11772;DHT22;12556;55.748;13.194;2023-06-10T13:46:01;25.20;51.20
11772;DHT22;12556;55.748;13.194;2023-06-10T13:48:29;25.20;51.10
11772;DHT22;12556;55.748;13.194;2023-06-10T13:50:56;25.10;51.40
11772;DHT22;12556;55.748;13.194;2023-06-10T13:53:25;25.10;51.00
11772;DHT22;12556;55.748;13.194;2023-06-10T13:55:52;25.10;50.60
11772;DHT22;12556;55.748;13.194;2023-06-10T13:58:19;25.00;50.80
11772;DHT22;12556;55.748;13.194;2023-06-10T14:00:45;25.10;51.40
11772;DHT22;12556;55.748;13.194;2023-06-10T14:03:12;25.20;51.50
11772;DHT22;12556;55.748;13.194;2023-06-10T14:05:41;25.20;52.10
11772;DHT22;12556;55.748;13.194;2023-06-10T14:08:08;25.30;51.20
11772;DHT22;12556;55.748;13.194;2023-06-10T14:10:35;25.40;51.00
11772;DHT22;12556;55.748;13.194;2023-06-10T14:13:02;25.30;50.10
11772;DHT22;12556;55.748;13.194;2023-06-10T14:15:29;25.10;49.40
11772;DHT22;12556;55.748;13.194;2023-06-10T14:17:56;25.00;49.60
11772;DHT22;12556;55.748;13.194;2023-06-10T14:20:23;24.80;50.20
11772;DHT22;12556;55.748;13.194;2023-06-10T14:22:52;24.60;49.90
11772;DHT22;12556;55.748;13.194;2023-06-10T14:25:19;24.60;50.50
11772;DHT22;12556;55.748;13.194;2023-06-10T14:27:46;24.50;50.40
11772;DHT22;12556;55.748;13.194;2023-06-10T14:30:13;24.40;50.50
11772;DHT22;12556;55.748;13.194;2023-06-10T14:32:41;24.20;51.40
11772;DHT22;12556;55.748;13.194;2023-06-10T14:35:08;24.10;51.30
11772;DHT22;12556;55.748;13.194;2023-06-10T14:37:35;24.00;50.80
11772;DHT22;12556;55.748;13.194;2023-06-10T14:40:05;24.00;50.80
11772;DHT22;12556;55.748;13.194;2023-06-10T14:42:32;23.80;50.30
11772;DHT22;12556;55.748;13.194;2023-06-10T14:44:59;23.70;49.90
11772;DHT22;12556;55.748;13.194;2023-06-10T14:47:26;23.70;50.00
11772;DHT22;12556;55.748;13.194;2023-06-10T14:49:53;23.60;50.30
11772;DHT22;12556;55.748;13.194;2023-06-10T14:52:20;23.60;50.50
11772;DHT22;12556;55.748;13.194;2023-06-10T14:54:46;23.40;50.40
11772;DHT22;12556;55.748;13.194;2023-06-10T14:57:15;23.50;50.80
11772;DHT22;12556;55.748;13.194;2023-06-10T14:59:42;23.40;50.20
11772;DHT22;12556;55.748;13.194;2023-06-10T15:02:09;23.30;50.50
11772;DHT22;12556;55.748;13.194;2023-06-10T15:04:36;23.20;50.50
11772;DHT22;12556;55.748;13.194;2023-06-10T15:07:03;23.20;50.80
11772;DHT22;12556;55.748;13.194;2023-06-10T15:09:30;23.10;51.40
11772;DHT22;12556;55.748;13.194;2023-06-10T15:11:57;23.10;51.40
11772;DHT22;12556;55.748;13.194;2023-06-10T15:14:26;23.20;51.40
11772;DHT22;12556;55.748;13.194;2023-06-10T15:16:53;23.10;51.50
11772;DHT22;12556;55.748;13.194;2023-06-10T15:19:21;23.20;51.20
11772;DHT22;12556;55.748;13.194;2023-06-10T15:21:48;23.10;50.90